createdAt,value
2022-10-26T07:44:47.376Z,99.90
2022-10-26T07:49:41.169Z,99.90
2022-10-26T07:54:35.091Z,99.90
2022-10-26T07:59:29.403Z,99.90
2022-10-26T08:04:24.844Z,99.90
2022-10-26T08:09:18.455Z,99.90
2022-10-26T08:14:12.851Z,99.90
2022-10-26T08:19:09.111Z,99.90
2022-10-26T08:24:06.763Z,99.90
2022-10-26T08:29:00.567Z,99.90
2022-10-26T08:33:54.571Z,99.90
2022-10-26T08:38:49.698Z,99.90
2022-10-26T08:43:51.473Z,99.90
2022-10-26T08:48:48.885Z,99.90
2022-10-26T08:53:45.339Z,99.90
2022-10-26T08:58:42.262Z,99.90
2022-10-26T09:03:37.548Z,99.90
2022-10-26T09:08:40.584Z,99.90
2022-10-26T09:13:44.231Z,99.90
2022-10-26T09:18:50.706Z,99.90
2022-10-26T09:23:58.401Z,99.90
2022-10-26T09:28:52.675Z,99.90
2022-10-26T09:33:48.567Z,99.90
2022-10-26T09:38:46.905Z,99.90
2022-10-26T09:43:45.176Z,99.90
2022-10-26T09:48:44.833Z,99.90
2022-10-26T09:53:40.173Z,99.90
2022-10-26T09:58:37.896Z,99.90
2022-10-26T10:03:33.912Z,99.90
2022-10-26T10:08:28.733Z,99.90
2022-10-26T10:13:26.198Z,99.90
2022-10-26T10:18:22.899Z,99.90
2022-10-26T10:23:30.647Z,99.90
2022-10-26T10:28:28.239Z,99.90
2022-10-26T10:33:22.028Z,99.90
2022-10-26T10:38:19.696Z,99.90
2022-10-26T10:43:17.930Z,99.90
2022-10-26T10:48:20.734Z,99.90
2022-10-26T10:53:19.510Z,99.90
2022-10-26T10:58:21.423Z,99.90
2022-10-26T11:03:34.600Z,99.90
2022-10-26T11:08:32.394Z,99.90
2022-10-26T11:13:28.957Z,99.90
2022-10-26T11:18:29.195Z,99.90
2022-10-26T11:23:32.196Z,99.90
2022-10-26T11:28:38.133Z,99.90
2022-10-26T11:33:41.004Z,99.90
2022-10-26T11:38:46.476Z,99.90
2022-10-26T11:43:52.389Z,99.90
2022-10-26T11:48:56.044Z,99.90
2022-10-26T11:53:51.887Z,99.90
2022-10-26T11:58:47.318Z,99.90
2022-10-26T12:03:45.781Z,99.90
2022-10-26T12:08:44.709Z,99.80
2022-10-26T12:13:44.357Z,99.70
2022-10-26T12:19:01.289Z,99.20
2022-10-26T12:23:59.445Z,99.60
2022-10-26T12:29:16.469Z,99.90
2022-10-26T12:34:18.203Z,99.90
2022-10-26T12:39:32.125Z,99.90
2022-10-26T12:44:37.247Z,99.90
2022-10-26T12:50:01.058Z,99.90
2022-10-26T12:55:22.116Z,99.90
2022-10-26T13:00:18.802Z,99.90
2022-10-26T13:06:04.925Z,99.90
2022-10-26T13:11:08.699Z,99.90
2022-10-26T13:16:03.880Z,99.90
2022-10-26T13:21:09.395Z,99.90
2022-10-26T13:26:13.124Z,99.90
2022-10-26T13:31:12.171Z,99.90
2022-10-26T13:36:18.681Z,99.90
2022-10-26T13:41:22.984Z,99.90
2022-10-26T13:46:28.040Z,99.90
2022-10-26T13:51:25.273Z,99.90
2022-10-26T13:56:37.387Z,99.90
2022-10-26T14:01:32.806Z,97.50
2022-10-26T14:06:32.731Z,99.10
2022-10-26T14:11:33.332Z,98.50
2022-10-26T14:16:31.602Z,95.20
2022-10-26T14:21:25.575Z,93.70
2022-10-26T14:26:24.765Z,92.70
2022-10-26T14:31:24.805Z,93.10
2022-10-26T14:36:22.135Z,94.20
2022-10-26T14:41:19.013Z,96.70
2022-10-26T14:46:16.450Z,97.70
2022-10-26T14:51:13.040Z,99.90
2022-10-26T14:56:24.535Z,99.90
2022-10-26T15:01:35.899Z,99.90
2022-10-26T15:11:47.836Z,99.90
2022-10-26T15:16:42.071Z,99.90
2022-10-26T15:21:40.514Z,99.90
2022-10-26T15:26:34.266Z,99.90
2022-10-26T15:31:38.208Z,99.90
2022-10-26T15:36:32.944Z,99.90
2022-10-26T15:41:29.616Z,99.90
2022-10-26T15:46:25.798Z,99.90
2022-10-26T15:51:21.270Z,99.90
2022-10-26T15:56:17.257Z,99.90
2022-10-26T16:01:17.697Z,99.90
2022-10-26T16:06:18.421Z,99.90
2022-10-26T16:11:14.092Z,99.90
2022-10-26T16:16:14.231Z,99.90
2022-10-26T16:21:08.241Z,99.90
2022-10-26T16:26:02.084Z,99.90
2022-10-26T16:31:02.144Z,99.90
2022-10-26T16:35:58.752Z,99.90
2022-10-26T16:40:52.906Z,99.90
2022-10-26T16:45:47.945Z,99.90
2022-10-26T16:50:43.513Z,99.90
2022-10-26T16:55:37.578Z,99.90
2022-10-26T17:00:41.097Z,99.90
2022-10-26T17:05:35.024Z,99.90
2022-10-26T17:10:30.217Z,99.90
2022-10-26T17:15:28.977Z,99.90
2022-10-26T17:20:23.151Z,99.90
2022-10-26T17:25:16.812Z,99.90
2022-10-26T17:30:14.221Z,99.90
2022-10-26T17:35:10.266Z,99.90
2022-10-26T17:40:04.037Z,99.90
2022-10-26T17:44:57.856Z,99.90
2022-10-26T17:49:54.281Z,99.90
2022-10-26T17:54:48.481Z,99.90
2022-10-26T17:59:42.806Z,99.90
2022-10-26T18:04:41.134Z,99.90
2022-10-26T18:09:39.532Z,99.90
